Time;durP1;ratioP1;P1;durP2;ratioP2;P2;SDS_P1;SDS_P2;PMS_P1;PMS_P2;Temp;Humidity;BMP_temperature;BMP_pressure;BME280_temperature;BME280_humidity;BME280_pressure;Samples;Min_cycle;Max_cycle;Signal;HPM_P1;HPM_P2
2024/03/19 00:00:40;;;;;;;38.83;9.35;;;;;;;3.94;61.64;100521.22;5060295;28;20706;-72
2024/03/19 00:03:06;;;;;;;37.95;9.77;;;;;;;3.91;62.33;100525.44;5059033;28;20041;-71
2024/03/19 00:05:33;;;;;;;29.48;9.07;;;;;;;3.42;62.26;100477.63;5044859;28;20097;-71
2024/03/19 00:07:59;;;;;;;34.88;9.38;;;;;;;3.72;62.58;100529.19;5046364;28;20040;-71
2024/03/19 00:10:26;;;;;;;34.05;9.50;;;;;;;3.79;62.30;100547.38;5045394;28;20041;-71
2024/03/19 00:12:52;;;;;;;29.17;10.18;;;;;;;3.20;62.35;100476.94;5073649;28;20047;-70
2024/03/19 00:15:18;;;;;;;37.55;9.35;;;;;;;3.29;62.96;100508.09;5058256;28;20040;-72
2024/03/19 00:17:44;;;;;;;29.67;9.80;;;;;;;3.26;62.74;100525.16;5073813;28;20515;-71
2024/03/19 00:20:11;;;;;;;36.65;10.75;;;;;;;3.28;63.59;100519.22;5057505;28;20037;-71
2024/03/19 00:22:37;;;;;;;32.88;9.57;;;;;;;3.55;63.32;100551.81;5050421;28;20143;-71
2024/03/19 00:25:08;;;;;;;33.72;8.98;;;;;;;3.27;63.40;100496.03;5046028;28;20123;-71
2024/03/19 00:27:35;;;;;;;38.42;9.10;;;;;;;2.95;63.10;100468.44;5033085;28;20086;-72
2024/03/19 00:30:03;;;;;;;31.42;10.02;;;;;;;3.03;64.04;100483.25;5071593;28;20044;-71
2024/03/19 00:32:32;;;;;;;34.08;8.98;;;;;;;3.32;64.22;100517.63;5059653;28;20044;-71
2024/03/19 00:34:58;;;;;;;37.45;9.88;;;;;;;2.93;64.09;100454.66;5045793;28;20040;-70
2024/03/19 00:37:27;;;;;;;34.45;9.38;;;;;;;3.45;64.71;100516.31;5024994;28;20071;-70
2024/03/19 00:39:53;;;;;;;38.63;9.65;;;;;;;3.33;64.37;100492.78;5056537;28;20520;-68
2024/03/19 00:42:19;;;;;;;35.35;10.93;;;;;;;3.38;64.36;100473.22;5044820;28;20036;-71
2024/03/19 00:44:45;;;;;;;33.90;10.05;;;;;;;3.60;63.10;100519.38;5071720;28;20615;-73
2024/03/19 00:47:12;;;;;;;28.25;9.43;;;;;;;3.53;63.66;100526.88;5034910;28;20063;-73
2024/03/19 00:49:38;;;;;;;27.90;10.75;;;;;;;3.40;64.24;100517.88;5055706;28;20085;-71
2024/03/19 00:52:06;;;;;;;27.67;11.38;;;;;;;3.53;64.16;100517.44;5060788;28;20482;-70
2024/03/19 00:54:33;;;;;;;34.83;12.57;;;;;;;3.42;63.15;100482.78;5032872;28;20047;-71
2024/03/19 00:56:59;;;;;;;35.55;13.18;;;;;;;3.49;64.18;100495.00;5073868;28;20127;-70
2024/03/19 00:59:25;;;;;;;41.90;13.57;;;;;;;3.56;64.34;100481.50;5057181;28;20128;-70
2024/03/19 01:01:51;;;;;;;33.42;13.00;;;;;;;3.81;64.20;100520.88;5034022;28;20040;-71
2024/03/19 01:04:18;;;;;;;38.10;12.55;;;;;;;3.31;63.44;100461.88;5043085;28;20041;-71
2024/03/19 01:06:44;;;;;;;42.08;12.38;;;;;;;3.61;64.02;100517.66;5039522;28;20058;-72
2024/03/19 01:09:12;;;;;;;34.60;10.77;;;;;;;3.67;63.40;100530.72;5057078;28;20039;-71
2024/03/19 01:11:39;;;;;;;35.22;9.82;;;;;;;3.24;64.27;100488.22;5036279;28;20391;-72
2024/03/19 01:14:06;;;;;;;24.05;8.30;;;;;;;3.44;63.43;100532.56;5057580;28;20521;-72
2024/03/19 01:16:35;;;;;;;29.13;8.05;;;;;;;3.23;63.75;100518.19;5076702;28;20139;-72
2024/03/19 01:19:01;;;;;;;31.40;9.27;;;;;;;3.03;63.82;100506.38;5065511;28;20063;-71
2024/03/19 01:21:27;;;;;;;29.30;8.73;;;;;;;3.09;64.73;100522.03;5050350;28;20044;-71
2024/03/19 01:23:53;;;;;;;28.23;8.93;;;;;;;3.22;65.48;100533.59;5076511;28;20052;-71
2024/03/19 01:26:20;;;;;;;29.98;9.45;;;;;;;3.09;63.78;100519.44;5054197;28;20059;-71
2024/03/19 01:28:46;;;;;;;32.40;9.15;;;;;;;2.77;64.18;100467.81;5065432;28;20113;-72
2024/03/19 01:31:12;;;;;;;26.52;8.50;;;;;;;2.93;63.75;100510.34;5060731;28;20064;-71
2024/03/19 01:33:38;;;;;;;30.00;8.90;;;;;;;3.05;64.83;100533.03;5032569;28;20047;-69
2024/03/19 01:36:04;;;;;;;26.10;8.98;;;;;;;2.70;64.93;100465.06;5059796;28;20085;-70
2024/03/19 01:38:30;;;;;;;30.35;8.52;;;;;;;2.86;64.72;100486.13;5061712;28;20550;-73
2024/03/19 01:40:56;;;;;;;32.35;9.23;;;;;;;3.07;64.68;100521.09;5075320;28;20051;-72
2024/03/19 01:43:22;;;;;;;34.13;10.05;;;;;;;3.06;64.83;100520.22;5050533;28;20048;-72
2024/03/19 01:46:07;;;;;;;31.75;9.82;;;;;;;3.07;65.27;100523.66;5044975;28;20061;-72
2024/03/19 01:48:34;;;;;;;29.75;9.52;;;;;;;3.08;64.84;100528.88;5059288;28;20522;-72
2024/03/19 01:51:01;;;;;;;38.65;10.90;;;;;;;2.95;65.54;100501.00;5062461;28;20032;-72
2024/03/19 01:53:27;;;;;;;27.65;13.23;;;;;;;2.98;65.79;100519.94;5051212;28;20063;-73
2024/03/19 01:55:54;;;;;;;30.95;12.85;;;;;;;2.98;65.57;100519.94;5035215;28;20513;-71
2024/03/19 01:58:23;;;;;;;33.63;12.35;;;;;;;3.03;65.51;100529.53;5077460;28;20048;-72
2024/03/19 02:00:50;;;;;;;34.97;10.98;;;;;;;2.88;65.29;100507.63;5048895;28;20040;-72
2024/03/19 02:03:16;;;;;;;33.60;10.38;;;;;;;3.01;65.28;100542.34;5058925;28;20414;-72
2024/03/19 02:05:46;;;;;;;30.20;10.23;;;;;;;2.83;65.38;100524.59;5045395;28;20045;-70
2024/03/19 02:08:13;;;;;;;23.67;10.05;;;;;;;2.47;65.39;100478.81;5041153;28;20458;-71
2024/03/19 02:10:41;;;;;;;28.23;10.10;;;;;;;2.97;66.00;100549.09;5061686;28;20094;-73
2024/03/19 02:13:09;;;;;;;31.17;10.52;;;;;;;2.73;65.92;100473.69;5074586;28;20503;-72
2024/03/19 02:15:36;;;;;;;29.83;10.63;;;;;;;2.88;65.77;100499.03;5058395;28;20063;-72
2024/03/19 02:18:03;;;;;;;34.35;10.60;;;;;;;3.08;65.53;100520.28;5060790;28;20036;-72
2024/03/19 02:20:32;;;;;;;31.77;12.57;;;;;;;2.82;65.60;100518.59;5059245;28;20086;-75
2024/03/19 02:22:58;;;;;;;36.15;13.13;;;;;;;2.69;65.63;100498.41;5053195;28;20036;-72
2024/03/19 02:25:24;;;;;;;31.77;11.85;;;;;;;2.95;65.99;100537.88;5030169;28;20454;-72
2024/03/19 02:27:50;;;;;;;34.60;13.30;;;;;;;2.94;65.49;100525.84;5058260;28;20051;-71
2024/03/19 02:30:17;;;;;;;34.85;12.82;;;;;;;2.53;65.18;100485.03;5040614;28;20040;-71
2024/03/19 02:32:43;;;;;;;33.33;12.77;;;;;;;2.69;66.34;100504.44;5057269;28;20040;-72
2024/03/19 02:35:09;;;;;;;31.40;12.25;;;;;;;3.14;66.36;100546.19;5047441;28;20044;-73
2024/03/19 02:37:36;;;;;;;35.13;13.52;;;;;;;3.07;65.36;100531.38;5059405;28;20178;-71
2024/03/19 02:40:05;;;;;;;31.55;13.30;;;;;;;2.98;65.50;100547.38;5057415;28;20117;-72
2024/03/19 02:42:34;;;;;;;35.72;12.77;;;;;;;2.98;66.20;100519.94;5059625;28;20093;-71
2024/03/19 02:45:00;;;;;;;32.15;12.73;;;;;;;2.76;66.20;100484.09;5065523;28;20184;-70
2024/03/19 02:47:26;;;;;;;39.13;13.18;;;;;;;3.06;66.54;100530.53;5075031;28;20040;-70
2024/03/19 02:49:53;;;;;;;40.20;14.43;;;;;;;3.27;66.00;100540.63;5058685;28;20074;-70
2024/03/19 02:52:19;;;;;;;28.88;13.50;;;;;;;3.19;66.52;100520.63;5074124;28;20451;-71
2024/03/19 02:54:45;;;;;;;28.90;13.98;;;;;;;3.40;66.56;100541.03;5050123;28;20093;-70
2024/03/19 02:57:11;;;;;;;39.75;14.70;;;;;;;3.54;66.10;100544.91;5045777;28;20036;-73
2024/03/19 02:59:37;;;;;;;35.13;13.30;;;;;;;3.53;65.94;100539.75;5045534;28;20036;-73
2024/03/19 03:02:03;;;;;;;32.85;13.05;;;;;;;3.62;65.83;100542.59;5052012;28;20036;-72
2024/03/19 03:04:29;;;;;;;33.45;13.50;;;;;;;3.70;66.16;100535.97;5075874;28;20137;-70
2024/03/19 03:06:55;;;;;;;30.13;12.85;;;;;;;3.87;66.00;100548.50;5058350;28;20494;-68
2024/03/19 03:09:22;;;;;;;29.58;13.10;;;;;;;3.76;65.53;100527.56;5075260;28;20044;-69
2024/03/19 03:11:48;;;;;;;27.15;12.63;;;;;;;3.90;66.01;100553.75;5061871;28;20093;-68
2024/03/19 03:14:14;;;;;;;22.85;13.32;;;;;;;3.91;65.74;100556.34;5072660;28;20046;-68
2024/03/19 03:16:40;;;;;;;32.60;12.63;;;;;;;3.94;65.37;100536.66;5046801;28;20040;-70
2024/03/19 03:19:06;;;;;;;33.92;12.15;;;;;;;3.94;65.35;100532.41;5044533;28;20050;-69
2024/03/19 03:21:32;;;;;;;32.28;12.13;;;;;;;3.97;64.61;100550.53;5058784;28;20091;-71
2024/03/19 03:23:59;;;;;;;29.92;11.95;;;;;;;3.81;65.04;100527.69;5035770;28;20052;-72
2024/03/19 03:26:25;;;;;;;29.25;12.43;;;;;;;3.92;65.68;100542.66;5042530;28;20055;-72
2024/03/19 03:28:51;;;;;;;34.72;11.68;;;;;;;4.05;65.40;100558.47;5075199;28;20052;-71
2024/03/19 03:31:19;;;;;;;30.58;11.30;;;;;;;4.02;65.25;100542.94;5033216;28;20075;-71
2024/03/19 03:33:45;;;;;;;34.70;12.02;;;;;;;4.08;64.46;100548.28;5035209;28;20059;-71
2024/03/19 03:36:11;;;;;;;30.85;11.50;;;;;;;4.12;64.53;100551.81;5055174;28;20036;-68
2024/03/19 03:38:37;;;;;;;25.95;10.40;;;;;;;4.12;65.07;100539.78;5033135;28;20060;-68
2024/03/19 03:41:07;;;;;;;25.80;10.27;;;;;;;4.34;65.33;100564.47;5040985;28;20036;-71
2024/03/19 03:43:36;;;;;;;24.88;10.68;;;;;;;4.33;64.84;100564.41;5057516;28;20453;-66
2024/03/19 03:46:06;;;;;;;22.55;9.18;;;;;;;4.26;64.26;100542.75;5058772;28;20032;-68
2024/03/19 03:48:32;;;;;;;24.83;10.20;;;;;;;4.47;64.48;100582.84;5034325;28;20492;-67
2024/03/19 03:50:58;;;;;;;26.48;11.10;;;;;;;4.40;64.18;100555.19;5059437;28;20496;-69
2024/03/19 03:53:25;;;;;;;30.95;9.68;;;;;;;4.51;63.91;100572.69;5072865;28;20044;-66
2024/03/19 03:55:52;;;;;;;23.67;9.55;;;;;;;4.64;64.27;100585.94;5050603;28;20502;-68
2024/03/19 03:58:18;;;;;;;30.75;11.45;;;;;;;4.57;63.42;100578.84;5049749;28;20093;-66
2024/03/19 04:00:45;;;;;;;31.13;11.07;;;;;;;4.42;63.88;100582.75;5043656;28;20101;-67
2024/03/19 04:03:15;;;;;;;25.67;11.32;;;;;;;4.38;63.89;100568.00;5056294;28;20051;-67
2024/03/19 04:05:41;;;;;;;32.03;11.00;;;;;;;4.36;63.23;100565.41;5046263;28;20055;-66
2024/03/19 04:08:07;;;;;;;37.50;15.38;;;;;;;4.35;63.85;100555.94;5048955;28;20116;-66
2024/03/19 04:10:33;;;;;;;43.67;23.63;;;;;;;4.56;64.17;100589.97;5058991;28;20048;-67
2024/03/19 04:13:02;;;;;;;34.15;18.58;;;;;;;4.51;64.00;100577.84;5058893;28;20127;-66
2024/03/19 04:15:28;;;;;;;31.45;15.02;;;;;;;4.39;63.98;100536.25;5041849;28;20048;-69
2024/03/19 04:17:55;;;;;;;24.77;11.65;;;;;;;4.58;62.85;100573.75;5055654;28;20036;-67
2024/03/19 04:20:21;;;;;;;22.83;10.43;;;;;;;4.63;63.42;100599.66;5055922;28;20043;-69
2024/03/19 04:22:47;;;;;;;23.08;9.88;;;;;;;4.41;62.84;100586.16;5060033;28;20036;-70
2024/03/19 04:25:16;;;;;;;23.17;9.32;;;;;;;4.22;63.43;100538.34;5046926;28;20055;-68
2024/03/19 04:27:42;;;;;;;21.80;8.43;;;;;;;4.47;62.78;100583.75;5058833;28;20063;-68
2024/03/19 04:30:08;;;;;;;21.42;8.77;;;;;;;4.48;63.07;100589.75;5055711;28;20043;-70
2024/03/19 04:32:37;;;;;;;20.08;8.30;;;;;;;4.55;63.19;100590.81;5057454;28;20045;-69
2024/03/19 04:35:04;;;;;;;25.38;9.02;;;;;;;4.50;62.92;100588.09;5073574;28;20069;-68
2024/03/19 04:37:31;;;;;;;21.90;8.32;;;;;;;4.54;63.51;100587.38;5055567;28;20044;-71
2024/03/19 04:39:57;;;;;;;19.08;8.90;;;;;;;4.52;62.84;100589.88;5043586;28;20450;-68
2024/03/19 04:42:23;;;;;;;23.90;9.32;;;;;;;4.56;63.11;100608.91;5073119;28;20502;-69
2024/03/19 04:44:49;;;;;;;21.77;8.82;;;;;;;4.50;63.10;100581.25;5057198;28;20072;-73
2024/03/19 04:47:17;;;;;;;21.25;8.40;;;;;;;4.62;62.55;100608.22;5045969;28;20043;-72
2024/03/19 04:49:44;;;;;;;23.52;7.57;;;;;;;4.46;62.69;100586.25;5076660;28;20128;-72
2024/03/19 04:52:10;;;;;;;23.95;8.55;;;;;;;4.28;62.51;100572.03;5048971;28;20066;-71
2024/03/19 04:54:36;;;;;;;19.48;7.70;;;;;;;4.61;62.66;100616.78;5060448;28;20043;-73
2024/03/19 04:57:02;;;;;;;17.88;8.38;;;;;;;4.46;63.06;100586.25;5077614;28;20045;-73
2024/03/19 04:59:31;;;;;;;19.95;8.35;;;;;;;4.66;63.58;100617.78;5043565;28;20039;-70
2024/03/19 05:01:57;;;;;;;20.40;8.85;;;;;;;4.51;62.97;100598.47;5046918;28;20379;-71
2024/03/19 05:04:23;;;;;;;26.85;8.02;;;;;;;4.42;62.78;100585.31;5059336;28;20086;-69
2024/03/19 05:06:49;;;;;;;25.38;8.98;;;;;;;4.37;62.63;100574.00;5074707;28;20063;-69
2024/03/19 05:09:15;;;;;;;30.58;12.70;;;;;;;4.40;62.77;100594.69;5077604;28;20051;-72
2024/03/19 05:11:42;;;;;;;52.53;25.17;;;;;;;4.56;62.73;100615.75;5053822;28;20828;-71
2024/03/19 05:14:08;;;;;;;34.85;16.15;;;;;;;4.66;62.89;100630.69;5030722;28;20529;-71
2024/03/19 05:16:34;;;;;;;26.05;11.57;;;;;;;4.49;62.01;100602.72;5046429;28;20040;-71
2024/03/19 05:19:00;;;;;;;20.70;8.20;;;;;;;4.70;63.09;100631.63;5032251;28;20051;-73
2024/03/19 05:21:26;;;;;;;27.00;8.95;;;;;;;4.35;62.39;100573.97;5058446;28;20440;-75
2024/03/19 05:23:52;;;;;;;24.83;9.18;;;;;;;4.61;62.55;100603.88;5074526;28;20148;-73
2024/03/19 05:26:18;;;;;;;20.60;9.40;;;;;;;4.60;62.44;100605.59;5041229;28;20036;-72
2024/03/19 05:28:44;;;;;;;18.42;7.50;;;;;;;4.41;61.66;100575.84;5058084;28;20628;-71
2024/03/19 05:31:25;;;;;;;23.38;8.05;;;;;;;4.46;62.58;100581.09;5045143;28;20036;-71
2024/03/19 05:33:52;;;;;;;24.05;7.65;;;;;;;4.62;61.72;100600.47;5056473;28;20449;-72
2024/03/19 05:36:18;;;;;;;21.75;7.28;;;;;;;4.79;62.75;100616.41;5061651;28;20082;-77
2024/03/19 05:38:45;;;;;;;18.73;8.13;;;;;;;5.00;62.85;100633.31;5044686;28;20167;-71
2024/03/19 05:41:13;;;;;;;20.52;7.63;;;;;;;4.73;63.12;100582.72;5074126;28;20028;-71
2024/03/19 05:43:39;;;;;;;24.90;7.50;;;;;;;4.98;62.65;100597.16;5058051;28;20077;-73
2024/03/19 05:46:05;;;;;;;25.35;7.85;;;;;;;5.16;62.13;100603.66;5054937;28;20044;-72
2024/03/19 05:48:33;;;;;;;22.08;7.63;;;;;;;5.28;62.10;100606.53;5047612;28;20067;-72
2024/03/19 05:51:02;;;;;;;21.20;7.60;;;;;;;5.49;62.14;100636.31;5056115;28;20040;-72
2024/03/19 05:53:28;;;;;;;15.75;7.53;;;;;;;5.21;60.50;100597.75;5055617;28;21826;-71
2024/03/19 05:55:54;;;;;;;21.15;8.05;;;;;;;5.12;61.84;100593.25;5044762;28;20051;-71
2024/03/19 05:58:20;;;;;;;19.25;8.80;;;;;;;5.16;61.29;100595.91;5074834;28;20426;-72
2024/03/19 06:00:47;;;;;;;21.95;7.90;;;;;;;5.55;61.34;100641.63;5043219;28;20044;-71
2024/03/19 06:03:13;;;;;;;19.15;7.97;;;;;;;5.77;61.69;100639.56;5044128;28;20036;-72
2024/03/19 06:05:39;;;;;;;29.38;11.10;;;;;;;5.83;61.34;100627.69;5057211;28;20044;-74
2024/03/19 06:08:05;;;;;;;24.13;9.27;;;;;;;5.57;60.67;100589.19;5033038;28;20101;-71
2024/03/19 06:10:32;;;;;;;25.45;9.77;;;;;;;5.80;61.00;100611.25;5076279;28;20205;-71
2024/03/19 06:13:01;;;;;;;22.20;9.25;;;;;;;6.09;61.04;100654.97;5044099;28;20040;-74
2024/03/19 06:15:27;;;;;;;25.95;9.75;;;;;;;6.07;59.32;100654.97;5044791;28;20097;-72
2024/03/19 06:17:53;;;;;;;24.35;8.77;;;;;;;5.97;60.53;100625.41;5048931;28;20127;-72
2024/03/19 06:20:20;;;;;;;23.33;9.30;;;;;;;5.93;60.75;100628.75;5033314;28;20104;-71
2024/03/19 06:22:46;;;;;;;19.25;8.77;;;;;;;5.93;60.55;100607.25;5059252;28;20035;-71
2024/03/19 06:25:12;;;;;;;21.63;9.60;;;;;;;6.01;60.18;100616.94;5072588;28;20048;-74
2024/03/19 06:27:38;;;;;;;20.90;7.70;;;;;;;6.17;59.13;100669.84;5071320;28;20410;-73
2024/03/19 06:30:05;;;;;;;23.35;8.73;;;;;;;5.63;59.55;100645.25;5049481;28;20044;-70
2024/03/19 06:32:31;;;;;;;23.23;8.30;;;;;;;5.47;59.78;100630.22;5044346;28;20037;-71
2024/03/19 06:34:58;;;;;;;21.88;8.02;;;;;;;5.47;59.96;100617.31;5034783;28;20135;-72
2024/03/19 06:37:24;;;;;;;24.80;8.75;;;;;;;5.67;59.41;100635.91;5053215;28;20046;-71
2024/03/19 06:39:50;;;;;;;16.75;7.78;;;;;;;5.53;60.24;100596.81;5037378;28;20525;-71
2024/03/19 06:42:16;;;;;;;23.95;8.15;;;;;;;5.65;58.94;100653.06;5053342;28;20040;-71
2024/03/19 06:44:42;;;;;;;18.85;7.57;;;;;;;5.40;59.16;100627.50;5052143;28;20147;-73
2024/03/19 06:47:08;;;;;;;22.17;7.60;;;;;;;5.76;60.37;100648.16;5053684;28;20041;-76
2024/03/19 06:49:35;;;;;;;22.27;9.45;;;;;;;5.81;59.57;100659.47;5037627;28;20048;-72
2024/03/19 06:52:01;;;;;;;27.98;10.70;;;;;;;5.53;58.51;100631.25;5053389;28;20037;-74
2024/03/19 06:54:27;;;;;;;24.90;10.02;;;;;;;5.40;58.79;100637.84;5041014;28;20048;-71
2024/03/19 06:56:53;;;;;;;22.90;9.60;;;;;;;5.25;59.44;100650.31;5029398;28;20074;-72
2024/03/19 06:59:19;;;;;;;24.25;9.57;;;;;;;5.27;59.33;100625.44;5054582;28;20044;-70
2024/03/19 07:01:47;;;;;;;21.90;9.05;;;;;;;5.25;59.18;100622.81;5053416;28;20569;-74
2024/03/19 07:04:13;;;;;;;22.20;8.90;;;;;;;5.34;59.58;100634.19;5034308;28;20040;-70
2024/03/19 07:06:39;;;;;;;25.08;8.23;;;;;;;5.50;59.56;100662.19;5035595;28;20041;-69
2024/03/19 07:09:05;;;;;;;18.85;8.23;;;;;;;5.29;59.34;100628.94;5041519;28;20102;-69
2024/03/19 07:11:31;;;;;;;23.73;8.40;;;;;;;5.66;60.19;100676.31;5049191;28;20033;-71
2024/03/19 07:13:58;;;;;;;24.55;8.40;;;;;;;5.69;60.22;100676.41;5034783;28;20530;-72
2024/03/19 07:16:25;;;;;;;27.85;9.38;;;;;;;5.63;60.02;100631.50;5039044;28;20044;-71
2024/03/19 07:18:51;;;;;;;21.60;10.30;;;;;;;5.97;59.13;100676.19;5049565;28;20131;-70
2024/03/19 07:21:17;;;;;;;28.02;9.00;;;;;;;5.62;58.99;100633.22;5049958;28;20172;-70
2024/03/19 07:23:43;;;;;;;24.52;9.32;;;;;;;5.68;59.02;100682.41;5050750;28;20602;-70
2024/03/19 07:26:10;;;;;;;17.20;7.78;;;;;;;5.72;60.02;100671.31;5047152;28;21633;-70
2024/03/19 07:28:38;;;;;;;20.63;9.63;;;;;;;6.00;59.64;100682.38;5050520;28;20082;-71
2024/03/19 07:31:04;;;;;;;27.70;8.77;;;;;;;6.05;59.74;100682.47;5050543;28;20029;-72
2024/03/19 07:33:30;;;;;;;21.90;10.30;;;;;;;6.17;60.12;100656.03;5032060;28;20564;-69
2024/03/19 07:35:59;;;;;;;24.52;10.65;;;;;;;6.28;59.49;100639.06;5041053;28;20103;-71
2024/03/19 07:38:25;;;;;;;30.55;10.10;;;;;;;6.48;58.87;100664.50;5025901;28;20208;-71
2024/03/19 07:40:52;;;;;;;23.17;10.75;;;;;;;6.06;58.48;100629.09;5034256;28;20189;-70
2024/03/19 07:43:18;;;;;;;22.48;10.27;;;;;;;6.38;59.39;100672.88;5050070;28;20040;-72
2024/03/19 07:45:44;;;;;;;27.52;10.65;;;;;;;6.20;58.83;100662.97;5036053;28;20530;-71
2024/03/19 07:48:12;;;;;;;26.48;10.38;;;;;;;6.01;58.84;100658.28;5053683;28;20208;-77
2024/03/19 07:50:39;;;;;;;24.40;9.98;;;;;;;5.97;58.53;100673.63;5053414;28;20039;-73
2024/03/19 07:53:05;;;;;;;17.17;9.68;;;;;;;5.85;59.25;100632.88;5056521;28;20040;-73
2024/03/19 07:55:31;;;;;;;22.40;8.30;;;;;;;6.24;59.41;100663.09;5057267;28;20040;-72
2024/03/19 07:57:57;;;;;;;18.40;8.18;;;;;;;5.93;59.02;100628.75;5055456;28;20049;-74
2024/03/19 08:00:25;;;;;;;22.65;8.45;;;;;;;6.05;58.58;100674.72;5049953;28;20487;-71
2024/03/19 08:02:51;;;;;;;18.42;8.32;;;;;;;6.05;58.84;100685.06;5050668;28;20067;-71
2024/03/19 08:05:17;;;;;;;16.90;8.45;;;;;;;5.98;58.23;100678.84;5052541;28;20491;-71
2024/03/19 08:07:46;;;;;;;22.33;9.50;;;;;;;5.56;58.88;100626.16;5052960;28;20041;-72
2024/03/19 08:10:13;;;;;;;22.25;9.43;;;;;;;5.77;58.94;100634.41;5054889;28;20526;-72
2024/03/19 08:12:40;;;;;;;25.55;9.45;;;;;;;6.31;58.20;100689.97;5051598;28;20099;-70
2024/03/19 08:15:06;;;;;;;20.50;9.75;;;;;;;6.52;59.25;100693.88;5052658;28;20157;-71
2024/03/19 08:17:36;;;;;;;25.33;9.75;;;;;;;6.65;58.66;100687.25;5053360;28;20465;-71
2024/03/19 08:20:12;;;;;;;23.63;8.82;;;;;;;6.41;57.96;100657.44;5049748;28;20038;-69
2024/03/19 08:22:41;;;;;;;20.38;7.70;;;;;;;6.48;57.16;100696.38;5051263;28;20044;-71
2024/03/19 08:25:10;;;;;;;21.02;8.38;;;;;;;6.13;58.14;100668.03;5046190;28;20044;-72
2024/03/19 08:27:37;;;;;;;19.08;8.20;;;;;;;6.24;58.42;100651.88;5052937;28;20057;-70
2024/03/19 08:30:05;;;;;;;23.08;11.05;;;;;;;6.35;57.44;100672.81;5043449;28;20043;-72
2024/03/19 08:32:32;;;;;;;23.35;9.57;;;;;;;6.21;57.67;100694.06;5030355;28;20497;-70
2024/03/19 08:34:58;;;;;;;34.88;11.90;;;;;;;6.11;57.67;100694.66;5056144;28;20351;-73
2024/03/19 08:37:24;;;;;;;22.90;10.27;;;;;;;5.88;59.03;100645.84;5037344;28;20476;-71
2024/03/19 08:39:50;;;;;;;27.15;9.93;;;;;;;6.15;58.61;100656.03;5048318;28;20462;-71
2024/03/19 08:42:16;;;;;;;20.25;8.68;;;;;;;6.30;57.74;100670.97;5056761;28;20057;-72
2024/03/19 08:44:42;;;;;;;19.02;9.00;;;;;;;6.46;58.61;100698.06;5042595;28;20089;-73
2024/03/19 08:47:08;;;;;;;27.02;9.57;;;;;;;6.61;57.79;100674.25;5042810;28;20390;-72
2024/03/19 08:49:35;;;;;;;18.77;7.97;;;;;;;6.75;58.35;100665.88;5072718;28;20036;-71
2024/03/19 08:52:04;;;;;;;25.95;8.27;;;;;;;6.91;57.14;100688.66;5041577;28;20125;-71
2024/03/19 08:54:42;;;;;;;26.55;8.95;;;;;;;6.86;57.64;100694.56;5023444;28;20044;-73
2024/03/19 08:57:11;;;;;;;23.83;9.18;;;;;;;7.17;58.35;100703.81;5044666;28;20315;-72
2024/03/19 08:59:37;;;;;;;21.15;7.53;;;;;;;7.50;57.29;100696.69;5054598;28;20359;-73
2024/03/19 09:02:04;;;;;;;24.05;9.30;;;;;;;7.53;56.38;100689.84;5057197;28;20113;-72
2024/03/19 09:04:34;;;;;;;24.55;8.40;;;;;;;6.97;56.51;100650.78;5041628;28;20102;-75
2024/03/19 09:07:01;;;;;;;19.45;10.25;;;;;;;7.00;55.65;100689.69;5055289;28;20040;-74
2024/03/19 09:09:27;;;;;;;30.73;9.85;;;;;;;7.25;56.84;100711.75;5060179;28;20040;-73
2024/03/19 09:11:53;;;;;;;27.38;9.93;;;;;;;7.46;56.76;100689.69;5043929;28;20375;-74
2024/03/19 09:14:20;;;;;;;23.73;7.50;;;;;;;7.79;56.25;100704.06;5040537;28;20716;-73
2024/03/19 09:16:46;;;;;;;18.45;7.45;;;;;;;7.81;56.16;100681.66;5043717;28;20032;-73
2024/03/19 09:19:12;;;;;;;20.58;8.32;;;;;;;7.94;55.06;100682.72;5055740;28;20048;-74
2024/03/19 09:21:38;;;;;;;26.75;8.15;;;;;;;7.90;54.65;100699.06;5047575;28;20048;-71
2024/03/19 09:24:05;;;;;;;21.15;7.75;;;;;;;8.04;55.50;100695.00;5051115;28;20388;-73
2024/03/19 09:26:34;;;;;;;22.88;8.13;;;;;;;8.28;54.94;100699.69;5062523;28;20044;-73
2024/03/19 09:29:00;;;;;;;21.17;8.52;;;;;;;8.36;54.89;100673.00;5051817;28;20147;-72
2024/03/19 09:31:26;;;;;;;25.75;7.85;;;;;;;8.44;54.20;100663.56;5053729;28;20045;-72
2024/03/19 09:33:55;;;;;;;25.13;7.97;;;;;;;8.72;54.12;100690.78;5052780;28;20052;-72
2024/03/19 09:36:21;;;;;;;21.70;8.20;;;;;;;8.92;54.06;100708.38;5040296;28;20028;-71
2024/03/19 09:38:49;;;;;;;18.85;7.90;;;;;;;8.90;53.49;100712.66;5061365;28;20454;-71
2024/03/19 09:41:18;;;;;;;20.35;8.30;;;;;;;8.94;53.18;100698.84;5041476;28;20086;-73
2024/03/19 09:43:48;;;;;;;23.48;8.27;;;;;;;9.15;53.07;100702.56;5052002;28;20051;-73
2024/03/19 09:46:15;;;;;;;22.05;8.13;;;;;;;8.97;52.91;100657.34;5047940;28;20037;-74
2024/03/19 09:48:46;;;;;;;22.88;8.38;;;;;;;9.35;52.54;100689.78;5053274;28;20040;-75
2024/03/19 09:51:22;;;;;;;27.08;8.13;;;;;;;9.58;52.03;100717.72;5023744;28;20068;-72
2024/03/19 09:53:48;;;;;;;21.27;8.57;;;;;;;9.56;52.03;100696.06;5051506;28;20036;-75
2024/03/19 09:56:19;;;;;;;22.50;8.20;;;;;;;9.68;51.73;100685.78;5052818;28;20047;-75
2024/03/19 09:58:50;;;;;;;21.17;7.88;;;;;;;9.41;50.80;100675.97;5057134;28;20387;-72
2024/03/19 10:01:17;;;;;;;28.58;8.23;;;;;;;9.82;51.30;100705.81;5036559;28;20040;-72
2024/03/19 10:03:43;;;;;;;22.10;8.25;;;;;;;10.03;51.39;100692.13;5024901;28;20040;-78
2024/03/19 10:06:18;;;;;;;25.05;8.50;;;;;;;10.47;51.06;100702.00;5055783;28;20140;-71
2024/03/19 10:08:48;;;;;;;32.70;7.93;;;;;;;10.79;50.13;100669.19;5053109;28;20047;-68
2024/03/19 10:11:14;;;;;;;29.30;8.70;;;;;;;11.47;49.99;100692.84;5052860;28;20041;-69
2024/03/19 10:13:42;;;;;;;19.38;7.80;;;;;;;11.69;48.94;100691.09;5051968;28;20422;-68
2024/03/19 10:16:08;;;;;;;27.85;9.38;;;;;;;11.56;47.58;100692.81;5039436;28;20131;-69
2024/03/19 10:18:34;;;;;;;22.75;8.75;;;;;;;10.94;47.70;100668.34;5042246;28;20449;-68
2024/03/19 10:21:00;;;;;;;27.23;8.70;;;;;;;11.32;48.40;100696.28;5020707;28;20028;-69
2024/03/19 10:23:27;;;;;;;22.05;7.70;;;;;;;11.49;48.37;100646.75;5054818;28;20044;-68
2024/03/19 10:25:54;;;;;;;30.50;7.50;;;;;;;11.68;47.13;100678.94;5061795;28;20413;-65
2024/03/19 10:28:20;;;;;;;29.02;8.75;;;;;;;11.90;47.68;100699.81;5073246;28;20052;-68
2024/03/19 10:30:50;;;;;;;23.33;7.75;;;;;;;11.68;46.74;100675.47;5048560;28;20040;-67
2024/03/19 10:33:16;;;;;;;25.73;7.68;;;;;;;11.29;46.53;100675.41;5060796;28;20041;-66
2024/03/19 10:35:42;;;;;;;22.77;7.90;;;;;;;11.48;46.73;100698.91;5030206;28;20037;-68
2024/03/19 10:38:14;;;;;;;24.17;8.35;;;;;;;11.73;46.55;100690.25;5049738;28;20140;-65
2024/03/19 10:40:41;;;;;;;25.27;8.30;;;;;;;11.74;46.46;100691.97;5054972;28;20721;-67
2024/03/19 10:43:17;;;;;;;27.77;9.23;;;;;;;11.50;46.09;100691.97;5040905;28;20041;-65
2024/03/19 10:45:48;;;;;;;20.27;8.20;;;;;;;11.03;44.93;100694.44;5072545;28;20044;-67
2024/03/19 10:48:17;;;;;;;32.50;8.68;;;;;;;10.98;46.70;100690.94;5052906;28;20045;-66
2024/03/19 10:50:47;;;;;;;28.42;8.88;;;;;;;11.17;45.86;100688.41;5044616;28;20127;-67
2024/03/19 10:53:19;;;;;;;27.73;8.68;;;;;;;11.11;45.06;100694.47;5055229;28;20052;-70
2024/03/19 10:55:50;;;;;;;22.63;8.73;;;;;;;10.96;46.01;100677.94;5054341;28;20043;-66
2024/03/19 10:58:20;;;;;;;17.38;7.82;;;;;;;11.24;46.28;100666.72;5053254;28;20040;-67
2024/03/19 11:00:46;;;;;;;19.00;7.20;;;;;;;11.78;45.99;100678.97;5055050;28;20037;-69
2024/03/19 11:03:15;;;;;;;22.42;7.82;;;;;;;11.92;45.09;100661.56;5053863;28;20530;-72
2024/03/19 11:05:54;;;;;;;27.42;8.52;;;;;;;12.24;45.52;100646.75;5055984;28;20056;-69
2024/03/19 11:08:20;;;;;;;25.05;8.23;;;;;;;12.54;43.73;100655.38;5045644;28;20174;-74
2024/03/19 11:10:47;;;;;;;21.83;7.82;;;;;;;12.55;44.33;100660.59;5057276;28;20060;-78
2024/03/19 11:13:17;;;;;;;33.33;8.85;;;;;;;12.76;43.99;100682.28;5054283;28;20123;-74
2024/03/19 11:15:45;;;;;;;33.53;8.40;;;;;;;12.53;43.94;100666.69;5062957;28;20510;-68
2024/03/19 11:18:14;;;;;;;23.45;7.50;;;;;;;12.74;43.12;100677.06;5057455;28;20040;-69
2024/03/19 11:20:51;;;;;;;28.15;7.45;;;;;;;12.55;43.27;100675.41;5032312;28;20040;-72